PWSweather.com
Personal Weather Stations
Station Observations
270882
Flassian, LimouxFR 11300

FlassianLimouxFR 11300

Lat: 43.071798, Lon: 2.217292

Elevation: 165

Station Type: Oregon WMR 200

http://www.meteolimoux.fr

High Low Average
Temperature 72.0°F22.2°F 55.9°F13.3°F 62.0°F16.7°F
Dew Point 62.8°F17.1°F 53.4°F11.9°F 57.0°F13.9°F
Winds 6.0 mph -9.7 mph - Calm Calm 1.0 mph 1.6 mph
Wind Gusts 12.1 mph19.5 mph -- 2.3 mph3.7 mph
Humidity 95% 63% 84%
Pressure 30.31 in1026.40 in 30.13 in1020.30 in -
Precipitation 0.00 in0.00 in - -
Hour Temp Dew Point Humidity Winds Wind Gusts Pressure Precip Precip Rate Daily Precip Total
12:02 AM 59.7°F15.4°C 56.8°F13.8°C 90% Calm Calm -- 30.16 in1021.3 mb - 0.00 in0.0 mm 0.00 in0.0 mm
12:07 AM 59.7°F15.4°C 56.8°F13.8°C 90% Calm Calm -- 30.16 in1021.3 mb - 0.00 in0.0 mm 0.00 in0.0 mm
12:12 AM 59.7°F15.4°C 57.0°F13.9°C 91% 1.3 mph W2.1 kmh W 3.8 mph6.1 kmh 30.16 in1021.3 mb - 0.00 in0.0 mm 0.00 in0.0 mm
12:17 AM 59.7°F15.4°C 57.0°F13.9°C 91% 2.5 mph WSW4.0 kmh WSW 2.5 mph4.0 kmh 30.16 in1021.3 mb - 0.00 in0.0 mm 0.00 in0.0 mm
12:22 AM 59.7°F15.4°C 57.0°F13.9°C 91% 2.2 mph WSW3.5 kmh WSW 3.4 mph5.5 kmh 30.16 in1021.3 mb - 0.00 in0.0 mm 0.00 in0.0 mm
12:27 AM 59.5°F15.3°C 56.8°F13.8°C 91% 1.6 mph WSW2.6 kmh WSW 2.7 mph4.3 kmh 30.16 in1021.3 mb - 0.00 in0.0 mm 0.00 in0.0 mm
12:32 AM 59.5°F15.3°C 56.8°F13.8°C 91% 1.8 mph WSW2.9 kmh WSW 3.4 mph5.5 kmh 30.16 in1021.3 mb - 0.00 in0.0 mm 0.00 in0.0 mm
12:37 AM 59.5°F15.3°C 56.8°F13.8°C 91% 1.3 mph WSW2.1 kmh WSW 3.6 mph5.8 kmh 30.16 in1021.3 mb - 0.00 in0.0 mm 0.00 in0.0 mm
12:42 AM 59.5°F15.3°C 56.8°F13.8°C 91% 1.6 mph W2.6 kmh W 3.8 mph6.1 kmh 30.16 in1021.3 mb - 0.00 in0.0 mm 0.00 in0.0 mm
12:47 AM 59.5°F15.3°C 56.8°F13.8°C 91% Calm Calm 1.1 mph1.8 kmh 30.16 in1021.3 mb - 0.00 in0.0 mm 0.00 in0.0 mm
12:52 AM 59.5°F15.3°C 56.8°F13.8°C 91% 0.4 mph SW0.6 kmh SW 2.9 mph4.7 kmh 30.16 in1021.3 mb - 0.00 in0.0 mm 0.00 in0.0 mm
12:57 AM 59.5°F15.3°C 56.8°F13.8°C 91% 0.2 mph SW0.3 kmh SW 2.2 mph3.5 kmh 30.16 in1021.3 mb - 0.00 in0.0 mm 0.00 in0.0 mm
01:02 AM 59.5°F15.3°C 56.8°F13.8°C 91% Calm Calm -- 30.16 in1021.3 mb - 0.00 in0.0 mm 0.00 in0.0 mm
01:07 AM 59.4°F15.2°C 56.5°F13.6°C 90% Calm Calm -- 30.16 in1021.3 mb - 0.00 in0.0 mm 0.00 in0.0 mm
01:12 AM 59.4°F15.2°C 56.5°F13.6°C 90% Calm Calm -- 30.16 in1021.3 mb - 0.00 in0.0 mm 0.00 in0.0 mm
01:17 AM 59.2°F15.1°C 56.3°F13.5°C 90% Calm Calm -- 30.16 in1021.3 mb - 0.00 in0.0 mm 0.00 in0.0 mm
01:22 AM 59.0°F15.0°C 56.1°F13.4°C 90% 0.2 mph WSW0.3 kmh WSW 1.8 mph2.9 kmh 30.16 in1021.3 mb - 0.00 in0.0 mm 0.00 in0.0 mm
01:27 AM 59.0°F15.0°C 56.1°F13.4°C 90% 0.2 mph W0.3 kmh W 1.6 mph2.6 kmh 30.16 in1021.3 mb - 0.00 in0.0 mm 0.00 in0.0 mm
01:32 AM 58.8°F14.9°C 55.9°F13.3°C 90% Calm Calm -- 30.16 in1021.3 mb - 0.00 in0.0 mm 0.00 in0.0 mm
01:37 AM 58.8°F14.9°C 55.9°F13.3°C 90% Calm Calm -- 30.16 in1021.3 mb - 0.00 in0.0 mm 0.00 in0.0 mm
01:42 AM 58.6°F14.8°C 55.8°F13.2°C 90% Calm Calm -- 30.16 in1021.3 mb - 0.00 in0.0 mm 0.00 in0.0 mm
01:47 AM 58.6°F14.8°C 55.8°F13.2°C 90% Calm Calm -- 30.16 in1021.3 mb - 0.00 in0.0 mm 0.00 in0.0 mm
01:52 AM 58.6°F14.8°C 55.8°F13.2°C 90% Calm Calm -- 30.16 in1021.3 mb - 0.00 in0.0 mm 0.00 in0.0 mm
01:57 AM 58.6°F14.8°C 55.8°F13.2°C 90% Calm Calm -- 30.16 in1021.3 mb - 0.00 in0.0 mm 0.00 in0.0 mm
02:02 AM 58.6°F14.8°C 55.8°F13.2°C 90% Calm Calm -- 30.16 in1021.3 mb - 0.00 in0.0 mm 0.00 in0.0 mm
02:07 AM 58.6°F14.8°C 55.8°F13.2°C 90% 0.2 mph SW0.3 kmh SW 1.8 mph2.9 kmh 30.16 in1021.3 mb - 0.00 in0.0 mm 0.00 in0.0 mm
02:12 AM 58.6°F14.8°C 55.9°F13.3°C 91% Calm Calm 0.9 mph1.4 kmh 30.16 in1021.3 mb - 0.00 in0.0 mm 0.00 in0.0 mm
02:17 AM 58.6°F14.8°C 55.9°F13.3°C 91% Calm Calm -- 30.16 in1021.3 mb - 0.00 in0.0 mm 0.00 in0.0 mm
02:22 AM 58.6°F14.8°C 55.9°F13.3°C 91% Calm Calm -- 30.16 in1021.3 mb - 0.00 in0.0 mm 0.00 in0.0 mm
02:27 AM 58.6°F14.8°C 55.9°F13.3°C 91% Calm Calm -- 30.16 in1021.3 mb - 0.00 in0.0 mm 0.00 in0.0 mm
02:32 AM 58.6°F14.8°C 55.9°F13.3°C 91% Calm Calm -- 30.16 in1021.3 mb - 0.00 in0.0 mm 0.00 in0.0 mm
02:37 AM 58.6°F14.8°C 55.9°F13.3°C 91% Calm Calm -- 30.16 in1021.3 mb - 0.00 in0.0 mm 0.00 in0.0 mm
02:42 AM 58.5°F14.7°C 55.8°F13.2°C 91% Calm Calm -- 30.16 in1021.3 mb - 0.00 in0.0 mm 0.00 in0.0 mm
02:47 AM 58.5°F14.7°C 55.8°F13.2°C 91% Calm Calm -- 30.16 in1021.3 mb - 0.00 in0.0 mm 0.00 in0.0 mm
02:52 AM 58.3°F14.6°C 55.4°F13.0°C 90% Calm Calm -- 30.16 in1021.3 mb - 0.00 in0.0 mm 0.00 in0.0 mm
02:57 AM 58.1°F14.5°C 55.2°F12.9°C 90% Calm Calm -- 30.16 in1021.3 mb - 0.00 in0.0 mm 0.00 in0.0 mm
03:02 AM 58.1°F14.5°C 55.2°F12.9°C 90% Calm Calm -- 30.16 in1021.3 mb - 0.00 in0.0 mm 0.00 in0.0 mm
03:07 AM 57.9°F14.4°C 55.0°F12.8°C 90% Calm Calm -- 30.16 in1021.3 mb - 0.00 in0.0 mm 0.00 in0.0 mm
03:12 AM 57.7°F14.3°C 54.9°F12.7°C 90% Calm Calm -- 30.16 in1021.3 mb - 0.00 in0.0 mm 0.00 in0.0 mm
03:17 AM 57.6°F14.2°C 54.7°F12.6°C 90% Calm Calm -- 30.16 in1021.3 mb - 0.00 in0.0 mm 0.00 in0.0 mm
03:22 AM 57.6°F14.2°C 54.7°F12.6°C 90% Calm Calm -- 30.16 in1021.3 mb - 0.00 in0.0 mm 0.00 in0.0 mm
03:27 AM 57.4°F14.1°C 54.5°F12.5°C 90% Calm Calm -- 30.16 in1021.3 mb - 0.00 in0.0 mm 0.00 in0.0 mm
03:32 AM 57.2°F14.0°C 54.3°F12.4°C 90% Calm Calm -- 30.16 in1021.3 mb - 0.00 in0.0 mm 0.00 in0.0 mm
03:37 AM 57.2°F14.0°C 54.3°F12.4°C 90% Calm Calm -- 30.16 in1021.3 mb - 0.00 in0.0 mm 0.00 in0.0 mm
03:42 AM 57.2°F14.0°C 54.3°F12.4°C 90% Calm Calm -- 30.16 in1021.3 mb - 0.00 in0.0 mm 0.00 in0.0 mm
03:47 AM 57.2°F14.0°C 54.7°F12.6°C 91% Calm Calm -- 30.16 in1021.3 mb - 0.00 in0.0 mm 0.00 in0.0 mm
03:52 AM 57.2°F14.0°C 54.3°F12.4°C 90% 0.9 mph SSW1.4 kmh SSW 4.0 mph6.4 kmh 30.16 in1021.3 mb - 0.00 in0.0 mm 0.00 in0.0 mm
03:57 AM 57.2°F14.0°C 54.7°F12.6°C 91% 1.1 mph SSW1.8 kmh SSW 3.4 mph5.5 kmh 30.16 in1021.3 mb - 0.00 in0.0 mm 0.00 in0.0 mm
04:02 AM 57.2°F14.0°C 54.7°F12.6°C 91% Calm Calm -- 30.16 in1021.3 mb - 0.00 in0.0 mm 0.00 in0.0 mm
04:07 AM 57.2°F14.0°C 54.7°F12.6°C 91% Calm Calm -- 30.16 in1021.3 mb - 0.00 in0.0 mm 0.00 in0.0 mm
04:12 AM 57.2°F14.0°C 54.7°F12.6°C 91% Calm Calm -- 30.16 in1021.3 mb - 0.00 in0.0 mm 0.00 in0.0 mm
04:17 AM 57.2°F14.0°C 54.7°F12.6°C 91% Calm Calm -- 30.16 in1021.3 mb - 0.00 in0.0 mm 0.00 in0.0 mm
04:22 AM 57.2°F14.0°C 54.7°F12.6°C 91% Calm Calm -- 30.16 in1021.3 mb - 0.00 in0.0 mm 0.00 in0.0 mm
04:27 AM 57.2°F14.0°C 54.7°F12.6°C 91% Calm Calm -- 30.16 in1021.3 mb - 0.00 in0.0 mm 0.00 in0.0 mm
04:32 AM 57.2°F14.0°C 54.7°F12.6°C 91% Calm Calm -- 30.16 in1021.3 mb - 0.00 in0.0 mm 0.00 in0.0 mm
04:37 AM 57.2°F14.0°C 54.7°F12.6°C 91% Calm Calm -- 30.16 in1021.3 mb - 0.00 in0.0 mm 0.00 in0.0 mm
04:42 AM 57.2°F14.0°C 54.7°F12.6°C 91% Calm Calm -- 30.16 in1021.3 mb - 0.00 in0.0 mm 0.00 in0.0 mm
04:47 AM 57.4°F14.1°C 55.0°F12.8°C 92% Calm Calm -- 30.16 in1021.3 mb - 0.00 in0.0 mm 0.00 in0.0 mm
04:52 AM 57.4°F14.1°C 55.0°F12.8°C 92% Calm Calm -- 30.16 in1021.3 mb - 0.00 in0.0 mm 0.00 in0.0 mm
04:57 AM 57.4°F14.1°C 55.0°F12.8°C 92% Calm Calm -- 30.16 in1021.3 mb - 0.00 in0.0 mm 0.00 in0.0 mm
05:02 AM 57.2°F14.0°C 54.9°F12.7°C 92% 0.7 mph NE1.1 kmh NE 2.9 mph4.7 kmh 30.13 in1020.3 mb - 0.00 in0.0 mm 0.00 in0.0 mm
05:07 AM 57.2°F14.0°C 54.7°F12.6°C 91% 0.7 mph NE1.1 kmh NE 2.7 mph4.3 kmh 30.13 in1020.3 mb - 0.00 in0.0 mm 0.00 in0.0 mm
05:12 AM 57.0°F13.9°C 54.5°F12.5°C 91% Calm Calm -- 30.13 in1020.3 mb - 0.00 in0.0 mm 0.00 in0.0 mm
05:17 AM 57.0°F13.9°C 54.5°F12.5°C 91% Calm Calm -- 30.16 in1021.3 mb - 0.00 in0.0 mm 0.00 in0.0 mm
05:22 AM 57.0°F13.9°C 54.5°F12.5°C 91% 0.2 mph NE0.3 kmh NE 1.6 mph2.6 kmh 30.16 in1021.3 mb - 0.00 in0.0 mm 0.00 in0.0 mm
05:27 AM 56.8°F13.8°C 54.3°F12.4°C 91% Calm Calm -- 30.16 in1021.3 mb - 0.00 in0.0 mm 0.00 in0.0 mm
05:32 AM 56.8°F13.8°C 54.5°F12.5°C 92% 0.9 mph ENE1.4 kmh ENE 4.0 mph6.4 kmh 30.16 in1021.3 mb - 0.00 in0.0 mm 0.00 in0.0 mm
05:37 AM 56.8°F13.8°C 54.5°F12.5°C 92% Calm Calm -- 30.16 in1021.3 mb - 0.00 in0.0 mm 0.00 in0.0 mm
05:42 AM 56.8°F13.8°C 54.5°F12.5°C 92% Calm Calm -- 30.16 in1021.3 mb - 0.00 in0.0 mm 0.00 in0.0 mm
05:47 AM 56.8°F13.8°C 54.5°F12.5°C 92% Calm Calm -- 30.13 in1020.3 mb - 0.00 in0.0 mm 0.00 in0.0 mm
05:52 AM 56.8°F13.8°C 54.5°F12.5°C 92% Calm Calm -- 30.13 in1020.3 mb - 0.00 in0.0 mm 0.00 in0.0 mm
05:57 AM 56.8°F13.8°C 54.5°F12.5°C 92% Calm Calm -- 30.13 in1020.3 mb - 0.00 in0.0 mm 0.00 in0.0 mm
06:02 AM 56.8°F13.8°C 54.5°F12.5°C 92% Calm Calm -- 30.13 in1020.3 mb - 0.00 in0.0 mm 0.00 in0.0 mm
06:07 AM 56.7°F13.7°C 54.3°F12.4°C 92% Calm Calm -- 30.13 in1020.3 mb - 0.00 in0.0 mm 0.00 in0.0 mm
06:12 AM 56.7°F13.7°C 54.3°F12.4°C 92% Calm Calm -- 30.13 in1020.3 mb - 0.00 in0.0 mm 0.00 in0.0 mm
06:17 AM 56.7°F13.7°C 54.3°F12.4°C 92% Calm Calm -- 30.16 in1021.3 mb - 0.00 in0.0 mm 0.00 in0.0 mm
06:22 AM 56.7°F13.7°C 54.3°F12.4°C 92% Calm Calm -- 30.16 in1021.3 mb - 0.00 in0.0 mm 0.00 in0.0 mm
06:27 AM 56.7°F13.7°C 54.3°F12.4°C 92% Calm Calm -- 30.16 in1021.3 mb - 0.00 in0.0 mm 0.00 in0.0 mm
06:32 AM 56.5°F13.6°C 54.1°F12.3°C 92% Calm Calm -- 30.16 in1021.3 mb - 0.00 in0.0 mm 0.00 in0.0 mm
06:37 AM 56.5°F13.6°C 54.1°F12.3°C 92% Calm Calm -- 30.16 in1021.3 mb - 0.00 in0.0 mm 0.00 in0.0 mm
06:42 AM 56.5°F13.6°C 54.1°F12.3°C 92% Calm Calm -- 30.16 in1021.3 mb - 0.00 in0.0 mm 0.00 in0.0 mm
06:47 AM 56.3°F13.5°C 54.0°F12.2°C 92% Calm Calm -- 30.16 in1021.3 mb - 0.00 in0.0 mm 0.00 in0.0 mm
06:52 AM 56.3°F13.5°C 54.0°F12.2°C 92% Calm Calm -- 30.16 in1021.3 mb - 0.00 in0.0 mm 0.00 in0.0 mm
06:57 AM 56.3°F13.5°C 54.0°F12.2°C 92% Calm Calm -- 30.16 in1021.3 mb - 0.00 in0.0 mm 0.00 in0.0 mm
07:02 AM 56.3°F13.5°C 54.0°F12.2°C 92% Calm Calm -- 30.19 in1022.4 mb - 0.00 in0.0 mm 0.00 in0.0 mm
07:07 AM 56.3°F13.5°C 54.0°F12.2°C 92% Calm Calm -- 30.19 in1022.4 mb - 0.00 in0.0 mm 0.00 in0.0 mm
07:12 AM 56.1°F13.4°C 53.8°F12.1°C 92% Calm Calm -- 30.19 in1022.4 mb - 0.00 in0.0 mm 0.00 in0.0 mm
07:17 AM 56.1°F13.4°C 53.8°F12.1°C 92% Calm Calm -- 30.19 in1022.4 mb - 0.00 in0.0 mm 0.00 in0.0 mm
07:27 AM 56.1°F13.4°C 53.8°F12.1°C 92% Calm Calm -- 30.19 in1022.4 mb - 0.00 in0.0 mm 0.00 in0.0 mm
07:32 AM 56.1°F13.4°C 53.8°F12.1°C 92% Calm Calm -- 30.19 in1022.4 mb - 0.00 in0.0 mm 0.00 in0.0 mm
07:37 AM 55.9°F13.3°C 53.6°F12.0°C 92% Calm Calm -- 30.19 in1022.4 mb - 0.00 in0.0 mm 0.00 in0.0 mm
07:42 AM 56.1°F13.4°C 53.8°F12.1°C 92% Calm Calm -- 30.19 in1022.4 mb - 0.00 in0.0 mm 0.00 in0.0 mm
07:47 AM 56.1°F13.4°C 53.8°F12.1°C 92% Calm Calm -- 30.19 in1022.4 mb - 0.00 in0.0 mm 0.00 in0.0 mm
07:52 AM 56.1°F13.4°C 54.1°F12.3°C 93% Calm Calm -- 30.19 in1022.4 mb - 0.00 in0.0 mm 0.00 in0.0 mm
07:57 AM 56.3°F13.5°C 54.3°F12.4°C 93% Calm Calm -- 30.19 in1022.4 mb - 0.00 in0.0 mm 0.00 in0.0 mm
08:02 AM 56.3°F13.5°C 54.3°F12.4°C 93% Calm Calm -- 30.22 in1023.4 mb - 0.00 in0.0 mm 0.00 in0.0 mm
08:07 AM 56.5°F13.6°C 54.5°F12.5°C 93% Calm Calm -- 30.22 in1023.4 mb - 0.00 in0.0 mm 0.00 in0.0 mm
08:12 AM 56.5°F13.6°C 54.5°F12.5°C 93% Calm Calm -- 30.22 in1023.4 mb - 0.00 in0.0 mm 0.00 in0.0 mm
08:17 AM 56.8°F13.8°C 54.9°F12.7°C 93% Calm Calm 0.4 mph0.6 kmh 30.25 in1024.4 mb - 0.00 in0.0 mm 0.00 in0.0 mm
08:22 AM 57.0°F13.9°C 55.0°F12.8°C 93% Calm Calm -- 30.25 in1024.4 mb - 0.00 in0.0 mm 0.00 in0.0 mm
08:27 AM 57.2°F14.0°C 55.2°F12.9°C 93% Calm Calm -- 30.25 in1024.4 mb - 0.00 in0.0 mm 0.00 in0.0 mm
08:32 AM 57.4°F14.1°C 55.6°F13.1°C 94% Calm Calm -- 30.22 in1023.4 mb - 0.00 in0.0 mm 0.00 in0.0 mm
08:37 AM 57.6°F14.2°C 55.8°F13.2°C 94% Calm Calm -- 30.22 in1023.4 mb - 0.00 in0.0 mm 0.00 in0.0 mm
08:42 AM 57.7°F14.3°C 55.9°F13.3°C 94% Calm Calm -- 30.22 in1023.4 mb - 0.00 in0.0 mm 0.00 in0.0 mm
08:47 AM 57.9°F14.4°C 56.1°F13.4°C 94% Calm Calm -- 30.22 in1023.4 mb - 0.00 in0.0 mm 0.00 in0.0 mm
08:52 AM 58.1°F14.5°C 56.3°F13.5°C 94% Calm Calm -- 30.22 in1023.4 mb - 0.00 in0.0 mm 0.00 in0.0 mm
08:57 AM 58.3°F14.6°C 56.5°F13.6°C 94% Calm Calm -- 30.22 in1023.4 mb - 0.00 in0.0 mm 0.00 in0.0 mm
09:02 AM 58.3°F14.6°C 56.5°F13.6°C 94% 0.9 mph SW1.4 kmh SW 3.1 mph5.0 kmh 30.22 in1023.4 mb - 0.00 in0.0 mm 0.00 in0.0 mm
09:07 AM 58.5°F14.7°C 56.7°F13.7°C 94% 2.5 mph SW4.0 kmh SW 4.7 mph7.6 kmh 30.22 in1023.4 mb - 0.00 in0.0 mm 0.00 in0.0 mm
09:12 AM 59.0°F15.0°C 57.2°F14.0°C 94% 2.7 mph WSW4.3 kmh WSW 4.9 mph7.9 kmh 30.22 in1023.4 mb - 0.00 in0.0 mm 0.00 in0.0 mm
09:17 AM 59.5°F15.3°C 58.1°F14.5°C 95% 0.4 mph SW0.6 kmh SW 2.9 mph4.7 kmh 30.22 in1023.4 mb - 0.00 in0.0 mm 0.00 in0.0 mm
09:22 AM 60.1°F15.6°C 58.6°F14.8°C 95% 0.2 mph SW0.3 kmh SW 1.6 mph2.6 kmh 30.22 in1023.4 mb - 0.00 in0.0 mm 0.00 in0.0 mm
09:27 AM 60.6°F15.9°C 59.2°F15.1°C 95% Calm Calm -- 30.22 in1023.4 mb - 0.00 in0.0 mm 0.00 in0.0 mm
09:32 AM 61.0°F16.1°C 59.5°F15.3°C 95% Calm Calm -- 30.25 in1024.4 mb - 0.00 in0.0 mm 0.00 in0.0 mm
09:37 AM 61.5°F16.4°C 60.1°F15.6°C 95% Calm Calm -- 30.25 in1024.4 mb - 0.00 in0.0 mm 0.00 in0.0 mm
09:42 AM 61.7°F16.5°C 59.9°F15.5°C 94% Calm Calm -- 30.25 in1024.4 mb - 0.00 in0.0 mm 0.00 in0.0 mm
09:47 AM 61.9°F16.6°C 60.1°F15.6°C 94% Calm Calm -- 30.25 in1024.4 mb - 0.00 in0.0 mm 0.00 in0.0 mm
09:52 AM 62.1°F16.7°C 60.3°F15.7°C 94% Calm Calm 0.7 mph1.1 kmh 30.25 in1024.4 mb - 0.00 in0.0 mm 0.00 in0.0 mm
09:57 AM 62.2°F16.8°C 60.3°F15.7°C 93% 0.7 mph SSW1.1 kmh SSW 2.7 mph4.3 kmh 30.25 in1024.4 mb - 0.00 in0.0 mm 0.00 in0.0 mm
10:02 AM 62.6°F17.0°C 60.3°F15.7°C 92% Calm Calm 0.9 mph1.4 kmh 30.25 in1024.4 mb - 0.00 in0.0 mm 0.00 in0.0 mm
10:07 AM 63.3°F17.4°C 61.0°F16.1°C 92% Calm Calm -- 30.25 in1024.4 mb - 0.00 in0.0 mm 0.00 in0.0 mm
10:12 AM 64.2°F17.9°C 61.9°F16.6°C 92% Calm Calm -- 30.25 in1024.4 mb - 0.00 in0.0 mm 0.00 in0.0 mm
10:17 AM 65.1°F18.4°C 62.8°F17.1°C 92% Calm Calm -- 30.28 in1025.4 mb - 0.00 in0.0 mm 0.00 in0.0 mm
10:22 AM 65.1°F18.4°C 62.4°F16.9°C 91% 0.2 mph NW0.3 kmh NW 2.0 mph3.2 kmh 30.28 in1025.4 mb - 0.00 in0.0 mm 0.00 in0.0 mm
10:27 AM 64.6°F18.1°C 61.3°F16.3°C 89% Calm Calm -- 30.28 in1025.4 mb - 0.00 in0.0 mm 0.00 in0.0 mm
10:32 AM 64.4°F18.0°C 61.2°F16.2°C 89% 1.1 mph NW1.8 kmh NW 6.9 mph11.1 kmh 30.28 in1025.4 mb - 0.00 in0.0 mm 0.00 in0.0 mm
10:37 AM 64.2°F17.9°C 60.6°F15.9°C 88% 1.8 mph NNW2.9 kmh NNW 4.7 mph7.6 kmh 30.28 in1025.4 mb - 0.00 in0.0 mm 0.00 in0.0 mm
10:42 AM 64.2°F17.9°C 60.6°F15.9°C 88% 0.2 mph NW0.3 kmh NW 2.5 mph4.0 kmh 30.28 in1025.4 mb - 0.00 in0.0 mm 0.00 in0.0 mm
10:47 AM 64.4°F18.0°C 60.4°F15.8°C 87% 0.9 mph NW1.4 kmh NW 4.7 mph7.6 kmh 30.28 in1025.4 mb - 0.00 in0.0 mm 0.00 in0.0 mm
10:52 AM 64.8°F18.2°C 60.8°F16.0°C 87% 2.0 mph WNW3.2 kmh WNW 4.3 mph6.9 kmh 30.28 in1025.4 mb - 0.00 in0.0 mm 0.00 in0.0 mm
10:57 AM 64.9°F18.3°C 60.6°F15.9°C 86% 0.9 mph N1.4 kmh N 2.9 mph4.7 kmh 30.28 in1025.4 mb - 0.00 in0.0 mm 0.00 in0.0 mm
11:02 AM 65.1°F18.4°C 60.4°F15.8°C 85% 0.2 mph W0.3 kmh W 2.5 mph4.0 kmh 30.25 in1024.4 mb - 0.00 in0.0 mm 0.00 in0.0 mm
11:07 AM 65.5°F18.6°C 61.2°F16.2°C 86% Calm Calm -- 30.25 in1024.4 mb - 0.00 in0.0 mm 0.00 in0.0 mm
11:12 AM 65.5°F18.6°C 60.4°F15.8°C 84% Calm Calm -- 30.25 in1024.4 mb - 0.00 in0.0 mm 0.00 in0.0 mm
11:17 AM 65.8°F18.8°C 60.8°F16.0°C 84% Calm Calm 0.7 mph1.1 kmh 30.25 in1024.4 mb - 0.00 in0.0 mm 0.00 in0.0 mm
11:22 AM 66.2°F19.0°C 60.8°F16.0°C 83% 0.2 mph W0.3 kmh W 2.9 mph4.7 kmh 30.25 in1024.4 mb - 0.00 in0.0 mm 0.00 in0.0 mm
11:27 AM 66.0°F18.9°C 60.6°F15.9°C 83% 0.2 mph WNW0.3 kmh WNW 1.8 mph2.9 kmh 30.25 in1024.4 mb - 0.00 in0.0 mm 0.00 in0.0 mm
11:32 AM 65.8°F18.8°C 59.2°F15.1°C 79% 0.2 mph SSW0.3 kmh SSW 2.7 mph4.3 kmh 30.25 in1024.4 mb - 0.00 in0.0 mm 0.00 in0.0 mm
11:37 AM 66.2°F19.0°C 59.5°F15.3°C 79% 0.2 mph SSE0.3 kmh SSE 0.2 mph0.3 kmh 30.25 in1024.4 mb - 0.00 in0.0 mm 0.00 in0.0 mm
11:42 AM 66.4°F19.1°C 59.7°F15.4°C 79% 1.8 mph E2.9 kmh E 3.1 mph5.0 kmh 30.25 in1024.4 mb - 0.00 in0.0 mm 0.00 in0.0 mm
11:47 AM 67.1°F19.5°C 60.4°F15.8°C 79% 0.7 mph E1.1 kmh E 0.7 mph1.1 kmh 30.25 in1024.4 mb - 0.00 in0.0 mm 0.00 in0.0 mm
11:52 AM 67.6°F19.8°C 61.3°F16.3°C 80% 0.2 mph NNW0.3 kmh NNW 2.9 mph4.7 kmh 30.25 in1024.4 mb - 0.00 in0.0 mm 0.00 in0.0 mm
11:57 AM 68.2°F20.1°C 61.0°F16.1°C 78% 0.2 mph NNW0.3 kmh NNW 0.2 mph0.3 kmh 30.25 in1024.4 mb - 0.00 in0.0 mm 0.00 in0.0 mm
12:02 PM 68.5°F20.3°C 60.6°F15.9°C 76% Calm Calm -- 30.28 in1025.4 mb - 0.00 in0.0 mm 0.00 in0.0 mm
12:07 PM 68.4°F20.2°C 60.1°F15.6°C 75% 4.0 mph NE6.4 kmh NE 9.6 mph15.4 kmh 30.28 in1025.4 mb - 0.00 in0.0 mm 0.00 in0.0 mm
12:12 PM 68.0°F20.0°C 59.4°F15.2°C 74% 3.8 mph N6.1 kmh N 7.8 mph12.6 kmh 30.28 in1025.4 mb - 0.00 in0.0 mm 0.00 in0.0 mm
12:17 PM 68.2°F20.1°C 59.9°F15.5°C 75% 3.8 mph NW6.1 kmh NW 6.9 mph11.1 kmh 30.25 in1024.4 mb - 0.00 in0.0 mm 0.00 in0.0 mm
12:22 PM 68.7°F20.4°C 60.4°F15.8°C 75% 2.9 mph NW4.7 kmh NW 6.3 mph10.1 kmh 30.25 in1024.4 mb - 0.00 in0.0 mm 0.00 in0.0 mm
12:27 PM 69.3°F20.7°C 60.6°F15.9°C 74% 2.0 mph NW3.2 kmh NW 6.7 mph10.8 kmh 30.25 in1024.4 mb - 0.00 in0.0 mm 0.00 in0.0 mm
12:32 PM 69.1°F20.6°C 59.4°F15.2°C 71% 2.0 mph N3.2 kmh N 5.1 mph8.2 kmh 30.25 in1024.4 mb - 0.00 in0.0 mm 0.00 in0.0 mm
12:37 PM 69.4°F20.8°C 60.4°F15.8°C 73% 3.8 mph W6.1 kmh W 6.5 mph10.5 kmh 30.25 in1024.4 mb - 0.00 in0.0 mm 0.00 in0.0 mm
12:42 PM 69.8°F21.0°C 60.8°F16.0°C 73% 3.8 mph NW6.1 kmh NW 7.6 mph12.2 kmh 30.25 in1024.4 mb - 0.00 in0.0 mm 0.00 in0.0 mm
12:47 PM 69.6°F20.9°C 60.3°F15.7°C 72% 0.9 mph NNW1.4 kmh NNW 6.9 mph11.1 kmh 30.22 in1023.4 mb - 0.00 in0.0 mm 0.00 in0.0 mm
12:52 PM 70.0°F21.1°C 60.1°F15.6°C 71% 3.8 mph NNW6.1 kmh NNW 11.4 mph18.3 kmh 30.22 in1023.4 mb - 0.00 in0.0 mm 0.00 in0.0 mm
12:57 PM 69.8°F21.0°C 59.5°F15.3°C 70% 3.8 mph NNE6.1 kmh NNE 7.8 mph12.6 kmh 30.22 in1023.4 mb - 0.00 in0.0 mm 0.00 in0.0 mm
01:02 PM 69.3°F20.7°C 59.5°F15.3°C 71% 3.1 mph NNE5.0 kmh NNE 6.0 mph9.7 kmh 30.22 in1023.4 mb - 0.00 in0.0 mm 0.00 in0.0 mm
01:07 PM 69.4°F20.8°C 60.1°F15.6°C 72% 5.1 mph NNE8.2 kmh NNE 9.8 mph15.8 kmh 30.22 in1023.4 mb - 0.00 in0.0 mm 0.00 in0.0 mm
01:12 PM 69.8°F21.0°C 59.9°F15.5°C 71% 3.1 mph WNW5.0 kmh WNW 7.4 mph11.9 kmh 30.22 in1023.4 mb - 0.00 in0.0 mm 0.00 in0.0 mm
01:17 PM 70.0°F21.1°C 60.1°F15.6°C 71% 4.5 mph NE7.2 kmh NE 8.7 mph14.0 kmh 30.22 in1023.4 mb - 0.00 in0.0 mm 0.00 in0.0 mm
01:22 PM 70.0°F21.1°C 59.7°F15.4°C 70% 4.7 mph N7.6 kmh N 10.3 mph16.6 kmh 30.22 in1023.4 mb - 0.00 in0.0 mm 0.00 in0.0 mm
01:27 PM 69.8°F21.0°C 59.2°F15.1°C 69% 3.8 mph NE6.1 kmh NE 9.6 mph15.4 kmh 30.22 in1023.4 mb - 0.00 in0.0 mm 0.00 in0.0 mm
01:32 PM 69.6°F20.9°C 59.0°F15.0°C 69% 5.8 mph NW9.3 kmh NW 10.1 mph16.3 kmh 30.22 in1023.4 mb - 0.00 in0.0 mm 0.00 in0.0 mm
01:37 PM 69.4°F20.8°C 58.8°F14.9°C 69% 5.6 mph WSW9.0 kmh WSW 9.8 mph15.8 kmh 30.22 in1023.4 mb - 0.00 in0.0 mm 0.00 in0.0 mm
01:42 PM 69.3°F20.7°C 58.6°F14.8°C 69% 6.0 mph NW9.7 kmh NW 9.2 mph14.8 kmh 30.22 in1023.4 mb - 0.00 in0.0 mm 0.00 in0.0 mm
01:47 PM 69.3°F20.7°C 59.0°F15.0°C 70% 5.8 mph NW9.3 kmh NW 12.1 mph19.5 kmh 30.22 in1023.4 mb - 0.00 in0.0 mm 0.00 in0.0 mm
01:52 PM 69.3°F20.7°C 59.0°F15.0°C 70% 4.3 mph NW6.9 kmh NW 8.9 mph14.3 kmh 30.22 in1023.4 mb - 0.00 in0.0 mm 0.00 in0.0 mm
01:57 PM 69.3°F20.7°C 58.6°F14.8°C 69% 4.7 mph WNW7.6 kmh WNW 9.2 mph14.8 kmh 30.22 in1023.4 mb - 0.00 in0.0 mm 0.00 in0.0 mm
02:02 PM 69.4°F20.8°C 58.8°F14.9°C 69% 3.8 mph NW6.1 kmh NW 8.1 mph13.0 kmh 30.19 in1022.4 mb - 0.00 in0.0 mm 0.00 in0.0 mm
02:07 PM 69.6°F20.9°C 59.4°F15.2°C 70% 5.1 mph NW8.2 kmh NW 9.2 mph14.8 kmh 30.19 in1022.4 mb - 0.00 in0.0 mm 0.00 in0.0 mm
02:12 PM 70.2°F21.2°C 59.9°F15.5°C 70% 5.1 mph WNW8.2 kmh WNW 8.5 mph13.7 kmh 30.19 in1022.4 mb - 0.00 in0.0 mm 0.00 in0.0 mm
02:17 PM 70.3°F21.3°C 59.7°F15.4°C 69% 4.7 mph NW7.6 kmh NW 7.6 mph12.2 kmh 30.22 in1023.4 mb - 0.00 in0.0 mm 0.00 in0.0 mm
02:22 PM 70.7°F21.5°C 59.5°F15.3°C 68% 3.8 mph N6.1 kmh N 6.7 mph10.8 kmh 30.22 in1023.4 mb - 0.00 in0.0 mm 0.00 in0.0 mm
02:27 PM 70.9°F21.6°C 60.3°F15.7°C 69% 4.0 mph NNE6.4 kmh NNE 7.6 mph12.2 kmh 30.22 in1023.4 mb - 0.00 in0.0 mm 0.00 in0.0 mm
02:32 PM 71.1°F21.7°C 59.5°F15.3°C 67% 3.1 mph NW5.0 kmh NW 6.3 mph10.1 kmh 30.22 in1023.4 mb - 0.00 in0.0 mm 0.00 in0.0 mm
02:37 PM 71.1°F21.7°C 59.5°F15.3°C 67% 0.7 mph 1.1 kmh 4.3 mph6.9 kmh 30.22 in1023.4 mb - 0.00 in0.0 mm 0.00 in0.0 mm
02:42 PM 71.2°F21.8°C 60.1°F15.6°C 68% 1.3 mph NW2.1 kmh NW 4.9 mph7.9 kmh 30.22 in1023.4 mb - 0.00 in0.0 mm 0.00 in0.0 mm
02:47 PM 71.4°F21.9°C 59.9°F15.5°C 67% 3.6 mph N5.8 kmh N 6.7 mph10.8 kmh 30.25 in1024.4 mb - 0.00 in0.0 mm 0.00 in0.0 mm
02:52 PM 71.2°F21.8°C 59.4°F15.2°C 66% 2.9 mph NNW4.7 kmh NNW 6.3 mph10.1 kmh 30.25 in1024.4 mb - 0.00 in0.0 mm 0.00 in0.0 mm
02:57 PM 71.6°F22.0°C 59.7°F15.4°C 66% 4.5 mph NE7.2 kmh NE 8.1 mph13.0 kmh 30.25 in1024.4 mb - 0.00 in0.0 mm 0.00 in0.0 mm
03:02 PM 71.8°F22.1°C 59.9°F15.5°C 66% 4.9 mph NE7.9 kmh NE 4.9 mph7.9 kmh 30.22 in1023.4 mb - 0.00 in0.0 mm 0.00 in0.0 mm
03:07 PM 72.0°F22.2°C 59.5°F15.3°C 65% 3.1 mph N5.0 kmh N 8.5 mph13.7 kmh 30.22 in1023.4 mb - 0.00 in0.0 mm 0.00 in0.0 mm
03:12 PM 72.0°F22.2°C 59.5°F15.3°C 65% 3.6 mph NW5.8 kmh NW 7.6 mph12.2 kmh 30.22 in1023.4 mb - 0.00 in0.0 mm 0.00 in0.0 mm
03:17 PM 72.0°F22.2°C 59.5°F15.3°C 65% 3.6 mph NW5.8 kmh NW 7.8 mph12.6 kmh 30.22 in1023.4 mb - 0.00 in0.0 mm 0.00 in0.0 mm
03:22 PM 71.6°F22.0°C 58.3°F14.6°C 63% 4.3 mph NW6.9 kmh NW 8.5 mph13.7 kmh 30.22 in1023.4 mb - 0.00 in0.0 mm 0.00 in0.0 mm
03:27 PM 71.4°F21.9°C 59.0°F15.0°C 65% 5.4 mph N8.7 kmh N 10.3 mph16.6 kmh 30.22 in1023.4 mb - 0.00 in0.0 mm 0.00 in0.0 mm
03:32 PM 71.4°F21.9°C 59.0°F15.0°C 65% 4.7 mph NW7.6 kmh NW 9.6 mph15.4 kmh 30.22 in1023.4 mb - 0.00 in0.0 mm 0.00 in0.0 mm
03:37 PM 71.2°F21.8°C 59.4°F15.2°C 66% 2.9 mph N4.7 kmh N 6.0 mph9.7 kmh 30.22 in1023.4 mb - 0.00 in0.0 mm 0.00 in0.0 mm
03:42 PM 71.1°F21.7°C 59.2°F15.1°C 66% 2.9 mph NNE4.7 kmh NNE 2.9 mph4.7 kmh 30.22 in1023.4 mb - 0.00 in0.0 mm 0.00 in0.0 mm
03:47 PM 70.9°F21.6°C 59.4°F15.2°C 67% 3.8 mph NE6.1 kmh NE 7.2 mph11.6 kmh 30.22 in1023.4 mb - 0.00 in0.0 mm 0.00 in0.0 mm
03:52 PM 70.7°F21.5°C 59.2°F15.1°C 67% 3.1 mph NNW5.0 kmh NNW 6.3 mph10.1 kmh 30.22 in1023.4 mb - 0.00 in0.0 mm 0.00 in0.0 mm
03:57 PM 70.3°F21.3°C 58.8°F14.9°C 67% 2.9 mph ENE4.7 kmh ENE 5.4 mph8.7 kmh 30.22 in1023.4 mb - 0.00 in0.0 mm 0.00 in0.0 mm
04:02 PM 70.2°F21.2°C 58.6°F14.8°C 67% 1.3 mph NW2.1 kmh NW 1.3 mph2.1 kmh 30.22 in1023.4 mb - 0.00 in0.0 mm 0.00 in0.0 mm
04:07 PM 69.8°F21.0°C 59.2°F15.1°C 69% 1.3 mph NE2.1 kmh NE 4.0 mph6.4 kmh 30.22 in1023.4 mb - 0.00 in0.0 mm 0.00 in0.0 mm
04:12 PM 69.6°F20.9°C 59.0°F15.0°C 69% 1.8 mph NW2.9 kmh NW 6.7 mph10.8 kmh 30.22 in1023.4 mb - 0.00 in0.0 mm 0.00 in0.0 mm
04:17 PM 69.4°F20.8°C 59.2°F15.1°C 70% 2.7 mph NW4.3 kmh NW 6.9 mph11.1 kmh 30.22 in1023.4 mb - 0.00 in0.0 mm 0.00 in0.0 mm
04:22 PM 69.1°F20.6°C 58.8°F14.9°C 70% 3.6 mph N5.8 kmh N 8.9 mph14.3 kmh 30.22 in1023.4 mb - 0.00 in0.0 mm 0.00 in0.0 mm
04:27 PM 68.7°F20.4°C 59.0°F15.0°C 71% 2.9 mph NNW4.7 kmh NNW 8.5 mph13.7 kmh 30.22 in1023.4 mb - 0.00 in0.0 mm 0.00 in0.0 mm
04:32 PM 68.5°F20.3°C 58.8°F14.9°C 71% 4.5 mph N7.2 kmh N 9.4 mph15.1 kmh 30.22 in1023.4 mb - 0.00 in0.0 mm 0.00 in0.0 mm
04:37 PM 68.2°F20.1°C 59.2°F15.1°C 73% 4.5 mph NW7.2 kmh NW 9.2 mph14.8 kmh 30.22 in1023.4 mb - 0.00 in0.0 mm 0.00 in0.0 mm
04:42 PM 67.8°F19.9°C 59.2°F15.1°C 74% 2.7 mph W4.3 kmh W 8.1 mph13.0 kmh 30.22 in1023.4 mb - 0.00 in0.0 mm 0.00 in0.0 mm
04:47 PM 67.6°F19.8°C 59.0°F15.0°C 74% 4.7 mph W7.6 kmh W 8.5 mph13.7 kmh 30.22 in1023.4 mb - 0.00 in0.0 mm 0.00 in0.0 mm
04:52 PM 67.5°F19.7°C 59.2°F15.1°C 75% 3.6 mph NW5.8 kmh NW 6.3 mph10.1 kmh 30.22 in1023.4 mb - 0.00 in0.0 mm 0.00 in0.0 mm
04:57 PM 67.3°F19.6°C 59.0°F15.0°C 75% 2.5 mph WNW4.0 kmh WNW 4.9 mph7.9 kmh 30.22 in1023.4 mb - 0.00 in0.0 mm 0.00 in0.0 mm
05:02 PM 67.1°F19.5°C 59.0°F15.0°C 75% 4.0 mph N6.4 kmh N 7.4 mph11.9 kmh 30.22 in1023.4 mb - 0.00 in0.0 mm 0.00 in0.0 mm
05:07 PM 66.7°F19.3°C 58.6°F14.8°C 75% 3.8 mph NNW6.1 kmh NNW 3.8 mph6.1 kmh 30.22 in1023.4 mb - 0.00 in0.0 mm 0.00 in0.0 mm
05:12 PM 66.7°F19.3°C 58.6°F14.8°C 75% 3.6 mph NW5.8 kmh NW 7.6 mph12.2 kmh 30.22 in1023.4 mb - 0.00 in0.0 mm 0.00 in0.0 mm
05:17 PM 66.6°F19.2°C 58.8°F14.9°C 76% 1.1 mph NW1.8 kmh NW 5.6 mph9.0 kmh 30.19 in1022.4 mb - 0.00 in0.0 mm 0.00 in0.0 mm
05:22 PM 66.4°F19.1°C 58.6°F14.8°C 76% 1.1 mph NW1.8 kmh NW 4.7 mph7.6 kmh 30.19 in1022.4 mb - 0.00 in0.0 mm 0.00 in0.0 mm
05:27 PM 66.4°F19.1°C 58.6°F14.8°C 76% 1.6 mph NW2.6 kmh NW 5.4 mph8.7 kmh 30.19 in1022.4 mb - 0.00 in0.0 mm 0.00 in0.0 mm
05:32 PM 66.4°F19.1°C 59.0°F15.0°C 77% 1.1 mph WSW1.8 kmh WSW 4.3 mph6.9 kmh 30.22 in1023.4 mb - 0.00 in0.0 mm 0.00 in0.0 mm
05:37 PM 66.2°F19.0°C 58.8°F14.9°C 77% 1.3 mph WSW2.1 kmh WSW 4.9 mph7.9 kmh 30.22 in1023.4 mb - 0.00 in0.0 mm 0.00 in0.0 mm
05:42 PM 66.0°F18.9°C 59.0°F15.0°C 78% 1.1 mph WNW1.8 kmh WNW 4.0 mph6.4 kmh 30.22 in1023.4 mb - 0.00 in0.0 mm 0.00 in0.0 mm
05:47 PM 65.8°F18.8°C 58.8°F14.9°C 78% Calm Calm -- 30.22 in1023.4 mb - 0.00 in0.0 mm 0.00 in0.0 mm
05:52 PM 65.7°F18.7°C 58.6°F14.8°C 78% 0.4 mph NNE0.6 kmh NNE 2.0 mph3.2 kmh 30.22 in1023.4 mb - 0.00 in0.0 mm 0.00 in0.0 mm
05:57 PM 65.5°F18.6°C 58.5°F14.7°C 78% Calm Calm -- 30.22 in1023.4 mb - 0.00 in0.0 mm 0.00 in0.0 mm
06:02 PM 65.3°F18.5°C 58.3°F14.6°C 78% 0.7 mph NW1.1 kmh NW 3.6 mph5.8 kmh 30.19 in1022.4 mb - 0.00 in0.0 mm 0.00 in0.0 mm
06:07 PM 65.1°F18.4°C 58.1°F14.5°C 78% 0.7 mph NW1.1 kmh NW 0.7 mph1.1 kmh 30.19 in1022.4 mb - 0.00 in0.0 mm 0.00 in0.0 mm
06:12 PM 64.9°F18.3°C 57.9°F14.4°C 78% 0.7 mph NNW1.1 kmh NNW 2.9 mph4.7 kmh 30.19 in1022.4 mb - 0.00 in0.0 mm 0.00 in0.0 mm
06:17 PM 64.8°F18.2°C 58.1°F14.5°C 79% 0.7 mph NE1.1 kmh NE 4.7 mph7.6 kmh 30.22 in1023.4 mb - 0.00 in0.0 mm 0.00 in0.0 mm
06:22 PM 64.6°F18.1°C 57.9°F14.4°C 79% 2.5 mph NW4.0 kmh NW 5.6 mph9.0 kmh 30.22 in1023.4 mb - 0.00 in0.0 mm 0.00 in0.0 mm
06:27 PM 64.4°F18.0°C 57.7°F14.3°C 79% 0.2 mph E0.3 kmh E 1.8 mph2.9 kmh 30.22 in1023.4 mb - 0.00 in0.0 mm 0.00 in0.0 mm
06:32 PM 64.2°F17.9°C 57.9°F14.4°C 80% 1.1 mph NNW1.8 kmh NNW 4.0 mph6.4 kmh 30.22 in1023.4 mb - 0.00 in0.0 mm 0.00 in0.0 mm
06:37 PM 64.0°F17.8°C 57.7°F14.3°C 80% 0.7 mph NW1.1 kmh NW 3.4 mph5.5 kmh 30.22 in1023.4 mb - 0.00 in0.0 mm 0.00 in0.0 mm
06:42 PM 63.9°F17.7°C 57.9°F14.4°C 81% Calm Calm -- 30.22 in1023.4 mb - 0.00 in0.0 mm 0.00 in0.0 mm
06:47 PM 63.7°F17.6°C 57.4°F14.1°C 80% 0.2 mph WSW0.3 kmh WSW 1.8 mph2.9 kmh 30.22 in1023.4 mb - 0.00 in0.0 mm 0.00 in0.0 mm
06:52 PM 63.5°F17.5°C 57.6°F14.2°C 81% Calm Calm -- 30.22 in1023.4 mb - 0.00 in0.0 mm 0.00 in0.0 mm
06:57 PM 63.3°F17.4°C 57.4°F14.1°C 81% 0.4 mph W0.6 kmh W 2.9 mph4.7 kmh 30.22 in1023.4 mb - 0.00 in0.0 mm 0.00 in0.0 mm
07:02 PM 63.1°F17.3°C 57.2°F14.0°C 81% 0.7 mph WNW1.1 kmh WNW 3.4 mph5.5 kmh 30.22 in1023.4 mb - 0.00 in0.0 mm 0.00 in0.0 mm
07:07 PM 63.1°F17.3°C 57.9°F14.4°C 83% 0.2 mph NW0.3 kmh NW 2.7 mph4.3 kmh 30.22 in1023.4 mb - 0.00 in0.0 mm 0.00 in0.0 mm
07:12 PM 63.1°F17.3°C 57.9°F14.4°C 83% 1.1 mph WSW1.8 kmh WSW 4.3 mph6.9 kmh 30.22 in1023.4 mb - 0.00 in0.0 mm 0.00 in0.0 mm
07:17 PM 63.1°F17.3°C 57.9°F14.4°C 83% 0.9 mph W1.4 kmh W 3.1 mph5.0 kmh 30.25 in1024.4 mb - 0.00 in0.0 mm 0.00 in0.0 mm
07:22 PM 63.0°F17.2°C 57.4°F14.1°C 82% Calm Calm 1.6 mph2.6 kmh 30.25 in1024.4 mb - 0.00 in0.0 mm 0.00 in0.0 mm
07:27 PM 62.8°F17.1°C 57.6°F14.2°C 83% Calm Calm -- 30.25 in1024.4 mb - 0.00 in0.0 mm 0.00 in0.0 mm
07:32 PM 62.8°F17.1°C 57.6°F14.2°C 83% 0.2 mph SW0.3 kmh SW 1.8 mph2.9 kmh 30.28 in1025.4 mb - 0.00 in0.0 mm 0.00 in0.0 mm
07:37 PM 62.6°F17.0°C 57.4°F14.1°C 83% 2.0 mph WSW3.2 kmh WSW 3.6 mph5.8 kmh 30.28 in1025.4 mb - 0.00 in0.0 mm 0.00 in0.0 mm
07:42 PM 62.2°F16.8°C 57.4°F14.1°C 84% Calm Calm 1.6 mph2.6 kmh 30.28 in1025.4 mb - 0.00 in0.0 mm 0.00 in0.0 mm
07:47 PM 62.1°F16.7°C 57.2°F14.0°C 84% Calm Calm -- 30.25 in1024.4 mb - 0.00 in0.0 mm 0.00 in0.0 mm
07:52 PM 61.9°F16.6°C 57.0°F13.9°C 84% Calm Calm -- 30.25 in1024.4 mb - 0.00 in0.0 mm 0.00 in0.0 mm
07:57 PM 61.7°F16.5°C 56.8°F13.8°C 84% Calm Calm -- 30.25 in1024.4 mb - 0.00 in0.0 mm 0.00 in0.0 mm
08:02 PM 61.5°F16.4°C 56.7°F13.7°C 84% Calm Calm -- 30.28 in1025.4 mb - 0.00 in0.0 mm 0.00 in0.0 mm
08:07 PM 61.3°F16.3°C 56.5°F13.6°C 84% Calm Calm -- 30.28 in1025.4 mb - 0.00 in0.0 mm 0.00 in0.0 mm
08:12 PM 61.2°F16.2°C 56.7°F13.7°C 85% Calm Calm -- 30.28 in1025.4 mb - 0.00 in0.0 mm 0.00 in0.0 mm
08:17 PM 61.0°F16.1°C 56.5°F13.6°C 85% Calm Calm -- 30.28 in1025.4 mb - 0.00 in0.0 mm 0.00 in0.0 mm
08:22 PM 60.8°F16.0°C 56.3°F13.5°C 85% Calm Calm -- 30.28 in1025.4 mb - 0.00 in0.0 mm 0.00 in0.0 mm
08:27 PM 60.6°F15.9°C 56.1°F13.4°C 85% Calm Calm -- 30.28 in1025.4 mb - 0.00 in0.0 mm 0.00 in0.0 mm
08:32 PM 60.4°F15.8°C 55.9°F13.3°C 85% Calm Calm -- 30.25 in1024.4 mb - 0.00 in0.0 mm 0.00 in0.0 mm
08:37 PM 60.3°F15.7°C 55.8°F13.2°C 85% Calm Calm -- 30.25 in1024.4 mb - 0.00 in0.0 mm 0.00 in0.0 mm
08:42 PM 60.1°F15.6°C 55.6°F13.1°C 85% Calm Calm -- 30.25 in1024.4 mb - 0.00 in0.0 mm 0.00 in0.0 mm
08:47 PM 60.1°F15.6°C 55.6°F13.1°C 85% Calm Calm -- 30.28 in1025.4 mb - 0.00 in0.0 mm 0.00 in0.0 mm
08:52 PM 59.9°F15.5°C 55.8°F13.2°C 86% Calm Calm -- 30.28 in1025.4 mb - 0.00 in0.0 mm 0.00 in0.0 mm
08:57 PM 59.9°F15.5°C 55.8°F13.2°C 86% Calm Calm -- 30.28 in1025.4 mb - 0.00 in0.0 mm 0.00 in0.0 mm
09:02 PM 59.7°F15.4°C 55.6°F13.1°C 86% Calm Calm -- 30.28 in1025.4 mb - 0.00 in0.0 mm 0.00 in0.0 mm
09:07 PM 59.5°F15.3°C 55.4°F13.0°C 86% Calm Calm -- 30.28 in1025.4 mb - 0.00 in0.0 mm 0.00 in0.0 mm
09:12 PM 59.5°F15.3°C 55.8°F13.2°C 87% Calm Calm -- 30.28 in1025.4 mb - 0.00 in0.0 mm 0.00 in0.0 mm
09:17 PM 59.5°F15.3°C 55.8°F13.2°C 87% Calm Calm -- 30.28 in1025.4 mb - 0.00 in0.0 mm 0.00 in0.0 mm
09:22 PM 59.5°F15.3°C 55.8°F13.2°C 87% Calm Calm 0.2 mph0.3 kmh 30.28 in1025.4 mb - 0.00 in0.0 mm 0.00 in0.0 mm
09:27 PM 59.5°F15.3°C 55.8°F13.2°C 87% Calm Calm -- 30.28 in1025.4 mb - 0.00 in0.0 mm 0.00 in0.0 mm
09:32 PM 59.4°F15.2°C 55.6°F13.1°C 87% Calm Calm -- 30.28 in1025.4 mb - 0.00 in0.0 mm 0.00 in0.0 mm
09:37 PM 59.2°F15.1°C 55.4°F13.0°C 87% Calm Calm -- 30.28 in1025.4 mb - 0.00 in0.0 mm 0.00 in0.0 mm
09:42 PM 59.0°F15.0°C 55.2°F12.9°C 87% Calm Calm -- 30.28 in1025.4 mb - 0.00 in0.0 mm 0.00 in0.0 mm
09:47 PM 59.0°F15.0°C 55.2°F12.9°C 87% Calm Calm -- 30.28 in1025.4 mb - 0.00 in0.0 mm 0.00 in0.0 mm
09:52 PM 58.8°F14.9°C 55.0°F12.8°C 87% Calm Calm -- 30.28 in1025.4 mb - 0.00 in0.0 mm 0.00 in0.0 mm
09:57 PM 58.8°F14.9°C 55.2°F12.9°C 88% Calm Calm -- 30.28 in1025.4 mb - 0.00 in0.0 mm 0.00 in0.0 mm
10:02 PM 58.6°F14.8°C 54.9°F12.7°C 87% Calm Calm -- 30.31 in1026.4 mb - 0.00 in0.0 mm 0.00 in0.0 mm
10:07 PM 58.5°F14.7°C 54.9°F12.7°C 88% Calm Calm -- 30.31 in1026.4 mb - 0.00 in0.0 mm 0.00 in0.0 mm
10:12 PM 58.3°F14.6°C 54.7°F12.6°C 88% Calm Calm -- 30.31 in1026.4 mb - 0.00 in0.0 mm 0.00 in0.0 mm
10:17 PM 58.3°F14.6°C 54.7°F12.6°C 88% Calm Calm -- 30.28 in1025.4 mb - 0.00 in0.0 mm 0.00 in0.0 mm
10:22 PM 58.1°F14.5°C 54.5°F12.5°C 88% Calm Calm -- 30.28 in1025.4 mb - 0.00 in0.0 mm 0.00 in0.0 mm
10:27 PM 57.9°F14.4°C 54.3°F12.4°C 88% Calm Calm -- 30.28 in1025.4 mb - 0.00 in0.0 mm 0.00 in0.0 mm
10:32 PM 57.7°F14.3°C 54.1°F12.3°C 88% Calm Calm -- 30.28 in1025.4 mb - 0.00 in0.0 mm 0.00 in0.0 mm
10:37 PM 57.7°F14.3°C 54.1°F12.3°C 88% Calm Calm -- 30.28 in1025.4 mb - 0.00 in0.0 mm 0.00 in0.0 mm
10:42 PM 57.6°F14.2°C 54.0°F12.2°C 88% Calm Calm -- 30.28 in1025.4 mb - 0.00 in0.0 mm 0.00 in0.0 mm
10:47 PM 57.6°F14.2°C 54.0°F12.2°C 88% Calm Calm -- 30.28 in1025.4 mb - 0.00 in0.0 mm 0.00 in0.0 mm
10:52 PM 57.4°F14.1°C 53.8°F12.1°C 88% Calm Calm -- 30.28 in1025.4 mb - 0.00 in0.0 mm 0.00 in0.0 mm
10:57 PM 57.2°F14.0°C 54.0°F12.2°C 89% Calm Calm -- 30.28 in1025.4 mb - 0.00 in0.0 mm 0.00 in0.0 mm
11:02 PM 57.2°F14.0°C 54.0°F12.2°C 89% Calm Calm -- 30.28 in1025.4 mb - 0.00 in0.0 mm 0.00 in0.0 mm
11:07 PM 57.0°F13.9°C 53.8°F12.1°C 89% Calm Calm -- 30.28 in1025.4 mb - 0.00 in0.0 mm 0.00 in0.0 mm
11:12 PM 57.0°F13.9°C 53.8°F12.1°C 89% Calm Calm -- 30.28 in1025.4 mb - 0.00 in0.0 mm 0.00 in0.0 mm
11:17 PM 57.0°F13.9°C 53.8°F12.1°C 89% Calm Calm -- 30.31 in1026.4 mb - 0.00 in0.0 mm 0.00 in0.0 mm
11:22 PM 56.8°F13.8°C 53.6°F12.0°C 89% Calm Calm -- 30.31 in1026.4 mb - 0.00 in0.0 mm 0.00 in0.0 mm
11:27 PM 57.0°F13.9°C 53.8°F12.1°C 89% Calm Calm -- 30.31 in1026.4 mb - 0.00 in0.0 mm 0.00 in0.0 mm
11:32 PM 56.8°F13.8°C 53.6°F12.0°C 89% Calm Calm -- 30.28 in1025.4 mb - 0.00 in0.0 mm 0.00 in0.0 mm
11:37 PM 56.8°F13.8°C 53.6°F12.0°C 89% Calm Calm -- 30.28 in1025.4 mb - 0.00 in0.0 mm 0.00 in0.0 mm
11:42 PM 56.7°F13.7°C 53.4°F11.9°C 89% Calm Calm -- 30.28 in1025.4 mb - 0.00 in0.0 mm 0.00 in0.0 mm
11:47 PM 56.8°F13.8°C 54.0°F12.2°C 90% Calm Calm -- 30.28 in1025.4 mb - 0.00 in0.0 mm 0.00 in0.0 mm
11:52 PM 56.8°F13.8°C 54.0°F12.2°C 90% Calm Calm -- 30.28 in1025.4 mb - 0.00 in0.0 mm 0.00 in0.0 mm
11:57 PM 57.0°F13.9°C 54.1°F12.3°C 90% Calm Calm -- 30.28 in1025.4 mb - 0.00 in0.0 mm 0.00 in0.0 mm